Time,TemperatureF,DewpointF,PressureIn,WindDirection,WindDirectionDegrees,WindSpeedMPH,WindSpeedGustMPH,Humidity,HourlyPrecipIn,Conditions,Clouds,dailyrainin,SoftwareType,DateUTC
2013-01-14 00:18:00,46.5,46.0,30.02,NNE,13,0.0,0.0,98,0.00,,,0.00,weatherlink.com 1.10,2013-01-14 05:18:00,
2013-01-14 00:30:00,46.5,46.0,30.02,NNE,12,0.0,0.0,98,0.00,,,0.00,weatherlink.com 1.10,2013-01-14 05:30:00,
2013-01-14 00:45:00,46.6,46.0,30.02,NNE,12,0.0,0.0,98,0.00,,,0.00,weatherlink.com 1.10,2013-01-14 05:45:00,
2013-01-14 01:01:00,46.6,46.0,30.02,NNE,12,0.0,0.0,98,0.00,,,0.00,weatherlink.com 1.10,2013-01-14 06:01:00,
2013-01-14 01:16:00,46.6,46.0,30.02,NNE,13,0.0,0.0,98,0.00,,,0.00,weatherlink.com 1.10,2013-01-14 06:16:00,
2013-01-14 01:31:00,46.6,46.0,30.01,NNE,13,0.0,0.0,98,0.00,,,0.00,weatherlink.com 1.10,2013-01-14 06:31:00,
2013-01-14 01:46:00,46.7,46.0,30.02,NNE,13,0.0,0.0,98,0.00,,,0.00,weatherlink.com 1.10,2013-01-14 06:46:00,
2013-01-14 02:01:00,46.8,46.0,30.03,NNE,13,0.0,0.0,98,0.01,,,0.01,weatherlink.com 1.10,2013-01-14 07:01:00,
2013-01-14 02:16:00,46.8,46.0,30.03,NNE,13,0.0,0.0,98,0.01,,,0.01,weatherlink.com 1.10,2013-01-14 07:16:00,
2013-01-14 02:31:00,46.8,46.0,30.03,NNE,13,0.0,0.0,98,0.01,,,0.01,weatherlink.com 1.10,2013-01-14 07:31:00,
2013-01-14 02:46:00,47.0,47.0,30.03,NNE,13,0.0,0.0,98,0.01,,,0.01,weatherlink.com 1.10,2013-01-14 07:46:00,
2013-01-14 03:01:00,47.1,47.0,30.02,NNE,13,0.0,0.0,98,0.00,,,0.01,weatherlink.com 1.10,2013-01-14 08:01:00,
2013-01-14 03:16:00,47.3,47.0,30.02,NNE,13,0.0,0.0,98,0.00,,,0.01,weatherlink.com 1.10,2013-01-14 08:16:00,
2013-01-14 03:31:00,47.5,47.0,30.02,NNE,13,0.0,0.0,98,0.00,,,0.01,weatherlink.com 1.10,2013-01-14 08:31:00,
2013-01-14 03:46:00,48.0,48.0,30.01,NNE,13,0.0,0.0,98,0.00,,,0.01,weatherlink.com 1.10,2013-01-14 08:46:00,
2013-01-14 04:01:00,47.8,47.0,30.02,NNE,13,0.0,0.0,98,0.01,,,0.02,weatherlink.com 1.10,2013-01-14 09:01:00,
2013-01-14 04:16:00,47.3,47.0,30.01,NNE,13,0.0,0.0,98,0.01,,,0.02,weatherlink.com 1.10,2013-01-14 09:16:00,
2013-01-14 04:31:00,47.9,47.0,30.01,NNE,13,0.0,0.0,98,0.01,,,0.02,weatherlink.com 1.10,2013-01-14 09:31:00,
2013-01-14 04:46:00,47.7,47.0,30.01,NNE,13,0.0,0.0,98,0.01,,,0.02,weatherlink.com 1.10,2013-01-14 09:46:00,
2013-01-14 05:01:00,47.6,47.0,29.99,NNE,13,0.0,0.0,98,0.00,,,0.02,weatherlink.com 1.10,2013-01-14 10:01:00,
2013-01-14 05:16:00,47.5,47.0,29.96,NNE,13,0.0,0.0,98,0.00,,,0.02,weatherlink.com 1.10,2013-01-14 10:16:00,
2013-01-14 05:31:00,47.5,47.0,29.98,East,79,0.0,0.0,98,0.00,,,0.02,weatherlink.com 1.10,2013-01-14 10:31:00,
2013-01-14 05:46:00,47.3,47.0,29.95,NE,54,0.0,0.0,98,0.00,,,0.02,weatherlink.com 1.10,2013-01-14 10:46:00,
2013-01-14 06:01:00,47.2,47.0,29.93,NE,43,0.0,1.0,98,0.00,,,0.02,weatherlink.com 1.10,2013-01-14 11:01:00,
2013-01-14 06:16:00,47.6,47.0,29.97,NE,51,0.0,2.0,98,0.00,,,0.02,weatherlink.com 1.10,2013-01-14 11:16:00,
2013-01-14 06:31:00,48.0,48.0,30.03,SSE,159,0.0,2.0,98,0.01,,,0.03,weatherlink.com 1.10,2013-01-14 11:31:00,
2013-01-14 06:46:00,48.5,48.0,30.02,SE,134,0.0,1.0,98,0.01,,,0.03,weatherlink.com 1.10,2013-01-14 11:46:00,
2013-01-14 07:01:00,48.4,48.0,30.04,SE,138,0.0,1.0,98,0.01,,,0.03,weatherlink.com 1.10,2013-01-14 12:01:00,
2013-01-14 07:16:00,48.5,48.0,30.05,SSE,158,1.0,2.0,98,0.01,,,0.03,weatherlink.com 1.10,2013-01-14 12:16:00,
2013-01-14 07:31:00,48.1,48.0,30.04,WNW,297,0.0,1.0,98,0.00,,,0.03,weatherlink.com 1.10,2013-01-14 12:31:00,
2013-01-14 07:46:00,48.0,48.0,30.05,SE,146,0.0,1.0,98,0.00,,,0.03,weatherlink.com 1.10,2013-01-14 12:46:00,
2013-01-14 08:01:00,48.2,48.0,30.06,SSE,148,0.0,1.0,98,0.00,,,0.03,weatherlink.com 1.10,2013-01-14 13:01:00,
2013-01-14 08:16:00,48.4,48.0,30.05,NE,49,0.0,1.0,98,0.00,,,0.03,weatherlink.com 1.10,2013-01-14 13:16:00,
2013-01-14 08:31:00,49.2,49.0,30.08,SE,131,1.0,3.0,98,0.00,,,0.03,weatherlink.com 1.10,2013-01-14 13:31:00,
2013-01-14 08:46:00,49.5,49.0,30.08,SSE,161,1.0,2.0,98,0.00,,,0.03,weatherlink.com 1.10,2013-01-14 13:46:00,
2013-01-14 09:01:00,50.0,50.0,30.08,ESE,113,0.0,2.0,98,0.00,,,0.03,weatherlink.com 1.10,2013-01-14 14:01:00,
2013-01-14 09:16:00,50.0,50.0,30.08,South,174,2.0,2.0,98,0.00,,,0.03,weatherlink.com 1.10,2013-01-14 14:16:00,
2013-01-14 09:31:00,50.6,50.0,30.09,SE,131,1.0,2.0,98,0.00,,,0.03,weatherlink.com 1.10,2013-01-14 14:31:00,
2013-01-14 09:46:00,50.9,50.0,30.09,SE,144,1.0,2.0,98,0.00,,,0.03,weatherlink.com 1.10,2013-01-14 14:46:00,
2013-01-14 10:01:00,51.5,51.0,30.10,SE,139,0.0,3.0,98,0.00,,,0.03,weatherlink.com 1.10,2013-01-14 15:01:00,
2013-01-14 10:16:00,52.2,52.0,30.10,SE,139,0.0,3.0,98,0.00,,,0.03,weatherlink.com 1.10,2013-01-14 15:16:00,
2013-01-14 10:31:00,52.2,52.0,30.11,SE,141,1.0,3.0,98,0.00,,,0.03,weatherlink.com 1.10,2013-01-14 15:31:00,
2013-01-14 10:46:00,52.4,52.0,30.11,SSE,162,0.0,2.0,98,0.00,,,0.03,weatherlink.com 1.10,2013-01-14 15:46:00,
2013-01-14 11:01:00,53.0,53.0,30.11,SSE,148,1.0,2.0,98,0.00,,,0.03,weatherlink.com 1.10,2013-01-14 16:01:00,
2013-01-14 11:16:00,53.3,52.0,30.11,ESE,117,0.0,2.0,96,0.00,,,0.03,weatherlink.com 1.10,2013-01-14 16:16:00,
2013-01-14 11:32:00,53.4,52.0,30.12,South,173,0.0,2.0,95,0.00,,,0.03,weatherlink.com 1.10,2013-01-14 16:32:00,
2013-01-14 11:47:00,53.6,52.0,30.11,SE,125,0.0,2.0,93,0.00,,,0.03,weatherlink.com 1.10,2013-01-14 16:47:00,
2013-01-14 12:17:00,53.7,51.0,30.10,ESE,118,0.0,1.0,89,0.00,,,0.03,weatherlink.com 1.10,2013-01-14 17:17:00,
2013-01-14 12:32:00,53.8,49.0,30.09,SE,139,0.0,2.0,83,0.00,,,0.03,weatherlink.com 1.10,2013-01-14 17:32:00,
2013-01-14 12:47:00,53.6,48.0,30.10,SE,141,1.0,2.0,81,0.00,,,0.03,weatherlink.com 1.10,2013-01-14 17:47:00,
2013-01-14 13:17:00,53.5,46.0,30.10,ESE,115,0.0,2.0,76,0.00,,,0.03,weatherlink.com 1.10,2013-01-14 18:17:00,
2013-01-14 13:32:00,53.2,45.0,30.11,SSE,149,0.0,3.0,73,0.00,,,0.03,weatherlink.com 1.10,2013-01-14 18:32:00,
2013-01-14 13:47:00,53.0,42.0,30.11,SSE,153,0.0,3.0,67,0.00,,,0.03,weatherlink.com 1.10,2013-01-14 18:47:00,
2013-01-14 14:02:00,52.6,42.0,30.12,SSE,153,0.0,2.0,67,0.00,,,0.03,weatherlink.com 1.10,2013-01-14 19:02:00,
2013-01-14 14:17:00,52.1,41.0,30.14,SE,137,0.0,2.0,67,0.00,,,0.03,weatherlink.com 1.10,2013-01-14 19:17:00,
2013-01-14 14:32:00,52.0,41.0,30.16,ESE,120,0.0,1.0,66,0.00,,,0.03,weatherlink.com 1.10,2013-01-14 19:32:00,
2013-01-14 14:47:00,51.8,40.0,30.14,SE,136,0.0,1.0,64,0.00,,,0.03,weatherlink.com 1.10,2013-01-14 19:47:00,
2013-01-14 15:02:00,51.6,40.0,30.15,NNE,19,0.0,2.0,65,0.00,,,0.03,weatherlink.com 1.10,2013-01-14 20:02:00,
2013-01-14 15:32:00,51.5,41.0,30.16,South,169,2.0,2.0,67,0.00,,,0.03,weatherlink.com 1.10,2013-01-14 20:32:00,
2013-01-14 15:48:00,51.1,40.0,30.17,SE,146,0.0,2.0,65,0.00,,,0.03,weatherlink.com 1.10,2013-01-14 20:48:00,
2013-01-14 16:02:00,50.7,40.0,30.17,SSE,158,0.0,1.0,66,0.00,,,0.03,weatherlink.com 1.10,2013-01-14 21:02:00,
2013-01-14 16:17:00,50.3,40.0,30.16,SSE,162,1.0,3.0,67,0.00,,,0.03,weatherlink.com 1.10,2013-01-14 21:17:00,
2013-01-14 16:32:00,49.9,39.0,30.17,South,180,0.0,3.0,67,0.00,,,0.03,weatherlink.com 1.10,2013-01-14 21:32:00,
2013-01-14 16:47:00,49.4,38.0,30.18,ESE,113,0.0,3.0,65,0.00,,,0.03,weatherlink.com 1.10,2013-01-14 21:47:00,
2013-01-14 17:02:00,48.9,38.0,30.18,NE,49,0.0,0.0,66,0.00,,,0.03,weatherlink.com 1.10,2013-01-14 22:02:00,
2013-01-14 17:17:00,48.5,37.0,30.18,SE,134,0.0,2.0,65,0.00,,,0.03,weatherlink.com 1.10,2013-01-14 22:17:00,
2013-01-14 17:32:00,48.1,38.0,30.19,SSE,159,0.0,2.0,67,0.00,,,0.03,weatherlink.com 1.10,2013-01-14 22:32:00,
2013-01-14 17:47:00,47.7,36.0,30.20,SSE,148,0.0,3.0,63,0.00,,,0.03,weatherlink.com 1.10,2013-01-14 22:47:00,
2013-01-14 18:17:00,46.6,30.0,30.19,SSE,165,0.0,1.0,53,0.00,,,0.03,weatherlink.com 1.10,2013-01-14 23:17:00,
2013-01-14 18:32:00,46.1,29.0,30.20,ESE,123,0.0,2.0,52,0.00,,,0.03,weatherlink.com 1.10,2013-01-14 23:32:00,
2013-01-14 18:47:00,45.8,29.0,30.22,SE,126,0.0,1.0,53,0.00,,,0.03,weatherlink.com 1.10,2013-01-14 23:47:00,
2013-01-14 19:02:00,45.6,29.0,30.23,ESE,120,1.0,2.0,52,0.00,,,0.03,weatherlink.com 1.10,2013-01-15 00:02:00,
2013-01-14 19:17:00,45.3,29.0,30.26,East,96,0.0,1.0,53,0.00,,,0.03,weatherlink.com 1.10,2013-01-15 00:17:00,
2013-01-14 19:32:00,45.0,29.0,30.27,SSE,162,0.0,2.0,54,0.00,,,0.03,weatherlink.com 1.10,2013-01-15 00:32:00,
2013-01-14 19:47:00,44.9,29.0,30.26,SSE,162,0.0,2.0,53,0.00,,,0.03,weatherlink.com 1.10,2013-01-15 00:47:00,
2013-01-14 20:02:00,44.6,29.0,30.26,SE,130,0.0,2.0,54,0.00,,,0.03,weatherlink.com 1.10,2013-01-15 01:02:00,
2013-01-14 20:17:00,44.4,28.0,30.26,SE,145,3.0,3.0,53,0.00,,,0.03,weatherlink.com 1.10,2013-01-15 01:17:00,
2013-01-14 20:32:00,44.1,28.0,30.27,SE,125,1.0,2.0,53,0.00,,,0.03,weatherlink.com 1.10,2013-01-15 01:32:00,
2013-01-14 21:03:00,43.4,28.0,30.26,North,353,1.0,3.0,56,0.00,,,0.03,weatherlink.com 1.10,2013-01-15 02:03:00,
2013-01-14 21:18:00,42.3,32.0,30.27,South,170,0.0,2.0,66,0.00,,,0.03,weatherlink.com 1.10,2013-01-15 02:18:00,
2013-01-14 21:33:00,40.8,31.0,30.29,South,186,0.0,4.0,69,0.01,,,0.04,weatherlink.com 1.10,2013-01-15 02:33:00,
2013-01-14 22:03:00,38.2,34.0,30.29,SSE,165,0.0,2.0,84,0.04,,,0.07,weatherlink.com 1.10,2013-01-15 03:03:00,
2013-01-14 22:18:00,37.7,34.0,30.29,SSW,194,1.0,3.0,86,0.05,,,0.08,weatherlink.com 1.10,2013-01-15 03:18:00,
2013-01-14 22:33:00,37.4,34.0,30.29,South,174,0.0,3.0,88,0.05,,,0.09,weatherlink.com 1.10,2013-01-15 03:33:00,
2013-01-14 22:48:00,37.2,34.0,30.29,SSE,161,0.0,1.0,89,0.04,,,0.09,weatherlink.com 1.10,2013-01-15 03:48:00,
2013-01-14 23:18:00,37.1,35.0,30.30,South,169,0.0,1.0,91,0.02,,,0.10,weatherlink.com 1.10,2013-01-15 04:18:00,
2013-01-14 23:33:00,37.0,35.0,30.30,SSE,163,0.0,1.0,91,0.01,,,0.10,weatherlink.com 1.10,2013-01-15 04:33:00,
2013-01-14 23:48:00,36.9,35.0,30.29,SE,133,0.0,2.0,91,0.01,,,0.10,weatherlink.com 1.10,2013-01-15 04:48:00,